createdAt,value
2019-02-23T00:03:52.317Z,2.4
2019-02-23T00:09:19.858Z,2.4
2019-02-23T00:14:47.463Z,2.3
2019-02-23T00:43:53.219Z,2.2
2019-02-23T00:47:34.486Z,2.2
2019-02-23T00:53:03.065Z,2.2
2019-02-23T00:58:31.539Z,2.2
2019-02-23T01:04:04.934Z,2.2
2019-02-23T01:09:27.594Z,2.1
2019-02-23T01:14:55.170Z,2.1
2019-02-23T01:20:23.685Z,2.1
2019-02-23T01:25:52.219Z,2
2019-02-23T01:31:20.685Z,2
2019-02-23T01:36:48.242Z,2
2019-02-23T01:42:16.666Z,1.9
2019-02-23T01:47:45.245Z,1.9
2019-02-23T01:53:12.747Z,1.9
2019-02-23T01:58:42.653Z,1.9
2019-02-23T02:04:08.653Z,1.9
2019-02-23T02:09:36.177Z,1.8
2019-02-23T02:15:03.650Z,1.8
2019-02-23T02:20:32.157Z,1.8
2019-02-23T02:26:00.712Z,1.8
2019-02-23T02:31:28.147Z,1.8
2019-02-23T02:36:55.577Z,1.8
2019-02-23T02:42:24.099Z,1.7
2019-02-23T02:47:51.599Z,1.7
2019-02-23T02:53:20.288Z,1.7
2019-02-23T02:58:48.502Z,1.6
2019-02-23T03:04:15.967Z,1.6
2019-02-23T03:09:44.633Z,1.6
2019-02-23T03:15:13.634Z,1.6
2019-02-23T03:20:41.378Z,1.6
2019-02-23T03:26:08.881Z,1.6
2019-02-23T03:31:37.387Z,1.6
2019-02-23T03:37:04.824Z,1.5
2019-02-23T03:42:32.554Z,1.5
2019-02-23T03:47:59.846Z,1.5
2019-02-23T03:53:28.435Z,1.5
2019-02-23T03:58:56.703Z,1.5
2019-02-23T04:04:25.159Z,1.5
2019-02-23T04:09:53.769Z,1.4
2019-02-23T04:15:22.189Z,1.4
2019-02-23T04:21:00.914Z,1.4
2019-02-23T04:26:17.047Z,1.4
2019-02-23T04:31:44.505Z,1.3
2019-02-23T04:37:12.953Z,1.3
2019-02-23T04:42:41.426Z,1.3
2019-02-23T04:48:09.858Z,1.3
2019-02-23T04:53:37.348Z,1.3
2019-02-23T04:59:05.782Z,1.2
2019-02-23T05:04:33.255Z,1.2
2019-02-23T05:10:00.847Z,1.2
2019-02-23T05:15:28.194Z,1.2
2019-02-23T05:42:47.516Z,1.1
2019-02-23T05:48:15.974Z,1.1
2019-02-23T05:53:43.386Z,1.1
2019-02-23T05:59:10.844Z,1
2019-02-23T06:04:38.317Z,1
2019-02-23T06:10:06.859Z,1
2019-02-23T06:15:35.226Z,1
2019-02-23T06:21:03.714Z,1
2019-02-23T06:26:32.270Z,0.9
2019-02-23T06:32:00.646Z,0.9
2019-02-23T06:37:29.076Z,0.9
2019-02-23T06:42:57.856Z,0.9
2019-02-23T06:48:23.947Z,0.9
2019-02-23T06:53:52.518Z,0.9
2019-02-23T06:59:19.868Z,0.9
2019-02-23T07:04:47.445Z,0.9
2019-02-23T07:10:14.814Z,1
2019-02-23T07:15:43.285Z,1
2019-02-23T07:21:11.764Z,1
2019-02-23T07:26:39.237Z,1.1
2019-02-23T07:32:07.723Z,1.1
2019-02-23T07:37:35.077Z,1.1
2019-02-23T07:43:02.683Z,1.2
2019-02-23T07:48:30.989Z,1.2
2019-02-23T07:53:59.527Z,1.3
2019-02-23T07:59:27.032Z,1.3
2019-02-23T08:04:55.962Z,1.4
2019-02-23T08:10:22.871Z,1.4
2019-02-23T08:15:50.422Z,1.4
2019-02-23T08:21:17.856Z,1.5
2019-02-23T08:26:46.413Z,1.6
2019-02-23T08:32:13.787Z,1.6
2019-02-23T08:37:41.285Z,1.7
2019-02-23T08:43:08.866Z,1.7
2019-02-23T08:48:36.272Z,1.8
2019-02-23T08:54:03.765Z,1.8
2019-02-23T08:59:31.528Z,1.9
2019-02-23T09:04:58.834Z,1.9
2019-02-23T09:10:26.624Z,1.9
2019-02-23T09:15:53.833Z,2
2019-02-23T09:21:21.508Z,2
2019-02-23T09:26:49.884Z,2.1
2019-02-23T09:32:18.483Z,2.2
2019-02-23T09:37:46.994Z,2.3
2019-02-23T09:43:17.731Z,2.4
2019-02-23T09:48:43.174Z,2.5
2019-02-23T09:54:10.782Z,2.6
2019-02-23T09:59:40.123Z,2.7
2019-02-23T10:05:07.872Z,2.8
2019-02-23T10:10:36.415Z,2.8
2019-02-23T10:16:05.083Z,2.9
2019-02-23T10:21:32.665Z,3
2019-02-23T10:27:01.370Z,3.1
2019-02-23T10:32:28.888Z,3.1
2019-02-23T10:54:22.348Z,3.5
2019-02-23T11:05:17.623Z,3.7
2019-02-23T11:10:45.356Z,3.8
2019-02-23T11:16:13.020Z,3.8
2019-02-23T11:21:40.622Z,3.9
2019-02-23T11:27:09.321Z,4
2019-02-23T11:32:36.980Z,4.1
2019-02-23T11:38:04.801Z,4.2
2019-02-23T11:43:33.406Z,4.2
2019-02-23T11:49:08.039Z,4.2
2019-02-23T11:54:29.799Z,4.3
2019-02-23T11:59:57.512Z,4.3
2019-02-23T12:05:26.204Z,4.3
2019-02-23T12:10:54.903Z,4.4
2019-02-23T12:16:22.589Z,4.4
2019-02-23T12:21:50.324Z,4.4
2019-02-23T12:27:19.186Z,4.4
2019-02-23T12:32:46.734Z,4.4
2019-02-23T12:38:15.538Z,4.4
2019-02-23T12:43:43.216Z,4.5
2019-02-23T12:49:11.035Z,4.6
2019-02-23T12:54:38.610Z,4.6
2019-02-23T13:00:07.554Z,4.6
2019-02-23T13:05:35.091Z,4.7
2019-02-23T13:11:02.955Z,4.8
2019-02-23T13:16:30.554Z,4.9
2019-02-23T13:21:58.317Z,5
2019-02-23T13:27:27.120Z,5.1
2019-02-23T13:32:55.860Z,5.2
2019-02-23T13:38:24.668Z,5.3
2019-02-23T13:43:53.433Z,5.3
2019-02-23T13:49:21.318Z,5.3
2019-02-23T13:54:49.002Z,5.3
2019-02-23T14:00:16.848Z,5.3
2019-02-23T14:05:45.558Z,5.3
2019-02-23T14:11:13.419Z,5.4
2019-02-23T14:16:41.169Z,5.4
2019-02-23T14:22:09.967Z,5.5
2019-02-23T14:27:37.831Z,5.6
2019-02-23T14:33:06.642Z,5.6
2019-02-23T14:38:35.510Z,5.7
2019-02-23T14:44:03.347Z,5.7
2019-02-23T14:49:32.106Z,5.7
2019-02-23T14:55:01.025Z,5.6
2019-02-23T15:00:28.709Z,5.6
2019-02-23T15:05:57.481Z,5.6
2019-02-23T15:11:26.299Z,5.5
2019-02-23T15:16:55.105Z,5.5
2019-02-23T15:22:23.904Z,5.5
2019-02-23T15:27:51.646Z,5.4
2019-02-23T15:33:28.738Z,5.4
2019-02-23T15:38:49.269Z,5.3
2019-02-23T15:44:23.078Z,5.3
2019-02-23T15:49:44.860Z,5.2
2019-02-23T15:55:12.629Z,5.1
2019-02-23T16:00:40.438Z,5.1
2019-02-23T16:06:08.138Z,5.1
2019-02-23T16:11:35.880Z,5
2019-02-23T16:17:03.612Z,4.9
2019-02-23T16:22:31.406Z,4.9
2019-02-23T16:27:59.122Z,4.8
2019-02-23T16:33:26.835Z,4.7
2019-02-23T16:38:54.543Z,4.7
2019-02-23T16:44:23.346Z,4.6
2019-02-23T16:49:51.952Z,4.5
2019-02-23T16:55:20.724Z,4.4
2019-02-23T17:00:48.314Z,4.3
2019-02-23T17:06:16.022Z,4.2
2019-02-23T17:11:44.785Z,4.1
2019-02-23T17:17:12.974Z,4
2019-02-23T17:22:41.044Z,3.9
2019-02-23T17:28:08.668Z,3.8
2019-02-23T17:33:37.260Z,3.7
2019-02-23T17:39:05.970Z,3.7
2019-02-23T17:44:33.551Z,3.6
2019-02-23T17:50:02.561Z,3.5
2019-02-23T17:55:29.840Z,3.4
2019-02-23T18:00:57.417Z,3.3
2019-02-23T18:06:25.055Z,3.3
2019-02-23T18:11:53.630Z,3.2
2019-02-23T18:17:21.621Z,3.2
2019-02-23T18:22:49.845Z,3.2
2019-02-23T18:28:19.369Z,3.1
2019-02-23T18:33:47.060Z,3.1
2019-02-23T18:39:15.664Z,3.1
2019-02-23T18:44:44.281Z,3
2019-02-23T18:50:13.403Z,3
2019-02-23T18:55:41.520Z,3
2019-02-23T19:01:09.011Z,3
2019-02-23T19:06:36.609Z,3
2019-02-23T19:12:05.234Z,3
2019-02-23T19:17:33.822Z,2.9
2019-02-23T19:23:01.375Z,2.9
2019-02-23T19:28:29.938Z,2.9
2019-02-23T19:33:57.575Z,2.9
2019-02-23T19:39:26.218Z,2.9
2019-02-23T19:44:55.780Z,2.9
2019-02-23T19:50:22.314Z,2.8
2019-02-23T19:55:49.876Z,2.8
2019-02-23T20:01:17.468Z,2.8
2019-02-23T20:06:44.988Z,2.8
2019-02-23T20:12:12.587Z,2.7
2019-02-23T20:17:41.120Z,2.7
2019-02-23T20:23:08.682Z,2.7
2019-02-23T20:28:36.240Z,2.6
2019-02-23T20:34:03.803Z,2.6
2019-02-23T20:39:32.338Z,2.6
2019-02-23T20:45:00.519Z,2.5
2019-02-23T20:50:28.402Z,2.5
2019-02-23T20:55:56.998Z,2.5
2019-02-23T21:01:25.562Z,2.5
2019-02-23T21:06:53.019Z,2.4
2019-02-23T21:12:20.625Z,2.4
2019-02-23T21:17:48.161Z,2.3
2019-02-23T21:23:15.662Z,2.3
2019-02-23T21:28:44.310Z,2.2
2019-02-23T21:39:40.605Z,2.1
2019-02-23T21:45:07.745Z,2.1
2019-02-23T21:50:36.256Z,2.1
2019-02-23T21:56:04.780Z,2
2019-02-23T22:01:33.267Z,2
2019-02-23T22:07:01.943Z,1.9
2019-02-23T22:12:30.376Z,1.9
2019-02-23T22:23:26.390Z,1.8
2019-02-23T22:28:54.903Z,1.8
2019-02-23T22:34:22.447Z,1.7
2019-02-23T22:39:49.838Z,1.7
2019-02-23T22:45:18.400Z,1.7
2019-02-23T22:50:44.875Z,1.7
2019-02-23T22:56:12.347Z,1.7
2019-02-23T23:01:41.131Z,1.7
2019-02-23T23:07:09.345Z,1.7
2019-02-23T23:12:36.864Z,1.7
2019-02-23T23:18:04.461Z,1.7
2019-02-23T23:23:33.270Z,1.7
2019-02-23T23:29:00.501Z,1.7
2019-02-23T23:34:28.753Z,1.7
2019-02-23T23:39:57.336Z,1.7
2019-02-23T23:45:25.919Z,1.6
2019-02-23T23:50:54.409Z,1.6
2019-02-23T23:56:22.953Z,1.6
